Terminal Aerodrome Forecast
Issued by NWS St Louis, MO

Home | Current Version | Previous Version | Text Only | Print | Product List | Glossary On
Versions: 1 2 3 4 5 6 7 8 9 10 11 12 13 14 15 16 17 18 19 20 21 22 23 24 25
000
FTUS43 KLSX 262058 AAA
TAFSTL
TAF AMD
KSTL 262058Z 2621/2724 18010KT P6SM FEW040 SCT100
     FM270200 18008KT P6SM SCT150
     FM270600 19007KT P6SM VCTS BKN060CB
     FM271300 18010KT 6SM -SHRA VCTS SCT025 OVC050CB
     FM271800 18012KT P6SM VCTS BKN040CB=

USA.gov is the U.S. government's official web portal to all federal, state and local government web resources and services.